Time;durP1;ratioP1;P1;durP2;ratioP2;P2;SDS_P1;SDS_P2;PMS_P1;PMS_P2;Temp;Humidity;BMP_temperature;BMP_pressure;BME280_temperature;BME280_humidity;BME280_pressure;Samples;Min_cycle;Max_cycle;Signal;HPM_P1;HPM_P2
2023/06/04 05:00:27;;;;;;;4.50;4.07;;;17.80;97.20;;;;;;1727214;28;20181;-68
2023/06/04 05:01:18;;;;;;;5.75;4.15;;;17.80;97.20;;;;;;1727139;28;20201;-68
2023/06/04 05:02:09;;;;;;;6.13;4.13;;;17.80;97.20;;;;;;1727361;28;20276;-68
2023/06/04 05:03:00;;;;;;;5.40;4.70;;;17.80;97.20;;;;;;1727316;28;20829;-68
2023/06/04 05:03:52;;;;;;;5.50;4.20;;;17.80;97.20;;;;;;1727282;28;20569;-68
2023/06/04 05:04:43;;;;;;;4.80;4.40;;;17.80;97.20;;;;;;1727239;28;20208;-68
2023/06/04 05:05:34;;;;;;;4.90;4.03;;;17.80;97.20;;;;;;1726949;28;20209;-68
2023/06/04 05:06:25;;;;;;;5.07;4.25;;;17.80;97.20;;;;;;1726596;28;20821;-68
2023/06/04 05:07:17;;;;;;;5.00;4.50;;;17.90;97.20;;;;;;1726908;28;20200;-68
2023/06/04 05:08:08;;;;;;;5.90;4.25;;;17.80;97.20;;;;;;1727234;28;20196;-68
2023/06/04 05:08:59;;;;;;;6.03;4.50;;;17.90;97.20;;;;;;1727329;28;20208;-68
2023/06/04 05:09:50;;;;;;;5.57;3.85;;;17.80;97.20;;;;;;1727190;28;20447;-68
2023/06/04 05:10:42;;;;;;;3.80;3.40;;;17.80;97.20;;;;;;1727173;28;20221;-68
2023/06/04 05:11:32;;;;;;;4.30;3.58;;;17.80;97.20;;;;;;1727391;28;20201;-67
2023/06/04 05:12:26;;;;;;;3.67;3.33;;;17.90;97.20;;;;;;1727252;28;20196;-68
2023/06/04 05:13:17;;;;;;;5.13;3.92;;;17.80;97.20;;;;;;1727231;28;20876;-68
2023/06/04 05:14:09;;;;;;;4.53;3.85;;;17.90;97.20;;;;;;1727233;28;20200;-68
2023/06/04 05:14:59;;;;;;;4.20;3.17;;;17.90;97.20;;;;;;1727307;28;20204;-68
2023/06/04 05:15:53;;;;;;;3.47;3.17;;;17.90;97.20;;;;;;1727165;28;20196;-68
2023/06/04 05:16:44;;;;;;;5.22;3.42;;;17.90;97.20;;;;;;1727188;28;20266;-68
2023/06/04 05:17:36;;;;;;;4.93;3.10;;;17.90;97.20;;;;;;1726943;28;20602;-68
2023/06/04 05:18:28;;;;;;;6.28;3.17;;;17.90;97.20;;;;;;1727081;28;20200;-68
2023/06/04 05:19:20;;;;;;;4.32;3.92;;;17.90;97.20;;;;;;1727001;28;20223;-67
2023/06/04 05:20:11;;;;;;;3.88;3.30;;;17.90;97.20;;;;;;1727154;28;20203;-68
2023/06/04 05:21:03;;;;;;;3.65;3.25;;;17.90;97.20;;;;;;1727267;28;20208;-68
2023/06/04 05:21:54;;;;;;;4.88;4.10;;;17.90;97.20;;;;;;1727239;28;20584;-68
2023/06/04 05:22:46;;;;;;;3.93;3.53;;;17.90;97.20;;;;;;1727188;28;20200;-68
2023/06/04 05:23:37;;;;;;;3.75;3.35;;;17.90;97.20;;;;;;1727240;28;20200;-68
2023/06/04 05:24:28;;;;;;;6.97;3.87;;;17.90;97.20;;;;;;1727091;28;20653;-68
2023/06/04 05:25:19;;;;;;;3.45;3.15;;;17.90;97.20;;;;;;1727122;28;20559;-68
2023/06/04 05:26:11;;;;;;;4.43;3.27;;;17.90;97.20;;;;;;1727194;28;20608;-68
2023/06/04 05:27:03;;;;;;;5.85;4.03;;;17.90;97.20;;;;;;1726974;28;20211;-68
2023/06/04 05:27:56;;;;;;;4.53;3.90;;;17.90;97.20;;;;;;1727153;28;20368;-68
2023/06/04 05:28:47;;;;;;;4.88;3.58;;;17.90;97.20;;;;;;1727064;28;20584;-68
2023/06/04 05:29:39;;;;;;;5.50;3.73;;;17.90;97.20;;;;;;1727176;28;20197;-68
2023/06/04 05:30:31;;;;;;;4.10;3.70;;;17.90;97.20;;;;;;1726835;28;20243;-68
2023/06/04 05:31:26;;;;;;;3.60;2.92;;;17.90;97.20;;;;;;1727054;28;20196;-68
2023/06/04 05:32:17;;;;;;;4.53;3.30;;;17.90;97.20;;;;;;1727212;28;20243;-66
2023/06/04 05:33:17;;;;;;;3.88;3.58;;;18.00;97.20;;;;;;1727184;28;20243;-66
2023/06/04 05:34:08;;;;;;;6.63;3.47;;;18.00;97.20;;;;;;1727136;28;20664;-66
2023/06/04 05:35:04;;;;;;;4.97;3.53;;;18.00;97.20;;;;;;1727217;28;20652;-67
2023/06/04 05:35:57;;;;;;;4.18;3.58;;;18.00;97.20;;;;;;1727160;28;20200;-66
2023/06/04 05:36:49;;;;;;;3.55;3.20;;;18.00;97.20;;;;;;1726835;28;20196;-66
2023/06/04 05:37:41;;;;;;;4.63;3.85;;;18.00;97.20;;;;;;1727163;28;20208;-66
2023/06/04 05:38:35;;;;;;;4.13;3.72;;;18.10;97.20;;;;;;1726978;28;20208;-67
2023/06/04 05:39:26;;;;;;;6.03;3.20;;;18.10;97.20;;;;;;1726988;28;20727;-67
2023/06/04 05:40:17;;;;;;;3.70;3.20;;;18.10;97.20;;;;;;1727155;28;20582;-67
2023/06/04 05:41:08;;;;;;;5.05;3.63;;;18.10;97.20;;;;;;1727107;28;20208;-66
2023/06/04 05:42:00;;;;;;;5.17;3.60;;;18.10;97.20;;;;;;1727068;28;20203;-66
2023/06/04 05:42:50;;;;;;;4.72;3.70;;;18.10;97.20;;;;;;1727143;28;20205;-67
2023/06/04 05:43:44;;;;;;;4.77;3.00;;;18.10;97.20;;;;;;1727137;28;20201;-67
2023/06/04 05:44:35;;;;;;;4.72;3.42;;;18.10;97.20;;;;;;1727049;28;20204;-67
2023/06/04 05:45:26;;;;;;;4.40;3.47;;;18.10;97.20;;;;;;1727066;28;20283;-67
2023/06/04 05:46:17;;;;;;;6.28;3.90;;;18.10;97.20;;;;;;1727033;28;20228;-67
2023/06/04 05:47:10;;;;;;;3.57;3.07;;;18.10;97.20;;;;;;1726886;28;20193;-67
2023/06/04 05:48:01;;;;;;;3.88;3.45;;;18.10;97.20;;;;;;1726968;28;20495;-67
2023/06/04 05:48:53;;;;;;;5.80;3.90;;;18.20;97.20;;;;;;1727049;28;20200;-66
2023/06/04 05:49:45;;;;;;;4.43;3.85;;;18.20;97.20;;;;;;1727098;28;20338;-66
2023/06/04 05:50:36;;;;;;;3.25;2.95;;;18.20;97.20;;;;;;1726931;28;20216;-67
2023/06/04 05:51:27;;;;;;;4.57;3.35;;;18.30;97.20;;;;;;1727012;28;20200;-67
2023/06/04 05:52:19;;;;;;;3.93;3.20;;;18.30;97.20;;;;;;1726975;28;20656;-67
2023/06/04 05:53:10;;;;;;;2.90;2.60;;;18.30;97.20;;;;;;1727094;28;20470;-67
2023/06/04 05:54:03;;;;;;;3.47;3.17;;;18.30;97.20;;;;;;1727025;28;20202;-66
2023/06/04 05:54:53;;;;;;;3.63;3.15;;;18.40;97.20;;;;;;1726946;28;20458;-67
2023/06/04 05:55:45;;;;;;;4.30;3.30;;;18.40;97.20;;;;;;1726986;28;20295;-67
2023/06/04 05:56:36;;;;;;;3.58;3.28;;;18.40;97.20;;;;;;1727140;28;20224;-67
2023/06/04 05:57:27;;;;;;;3.40;2.93;;;18.40;97.20;;;;;;1726680;28;20201;-66
2023/06/04 05:58:18;;;;;;;3.15;2.65;;;18.50;97.20;;;;;;1726923;28;20204;-66
2023/06/04 05:59:10;;;;;;;3.30;3.00;;;18.50;97.20;;;;;;1727000;28;20192;-66
2023/06/04 06:00:00;;;;;;;3.78;3.10;;;18.50;97.20;;;;;;1727006;28;20211;-67
2023/06/04 06:00:52;;;;;;;5.47;3.20;;;18.60;97.20;;;;;;1726977;28;20227;-67
2023/06/04 06:01:43;;;;;;;6.43;3.55;;;18.60;97.20;;;;;;1727030;28;20200;-67
2023/06/04 06:02:37;;;;;;;4.30;3.03;;;18.60;97.20;;;;;;1727058;28;20212;-67
2023/06/04 06:03:28;;;;;;;4.95;2.97;;;18.60;97.20;;;;;;1727024;28;20479;-66
2023/06/04 06:04:20;;;;;;;4.00;2.90;;;18.70;97.20;;;;;;1727025;28;20235;-66
2023/06/04 06:05:10;;;;;;;2.80;2.60;;;18.70;97.20;;;;;;1727089;28;20477;-67
2023/06/04 06:06:02;;;;;;;4.07;3.27;;;18.70;97.20;;;;;;1727214;28;20204;-66
2023/06/04 06:06:53;;;;;;;5.35;3.17;;;18.70;97.20;;;;;;1726781;28;20454;-66
2023/06/04 06:07:45;;;;;;;2.97;2.57;;;18.70;97.20;;;;;;1727115;28;20244;-67
2023/06/04 06:08:36;;;;;;;3.95;3.00;;;18.70;97.20;;;;;;1727046;28;20207;-67
2023/06/04 06:09:27;;;;;;;3.83;2.13;;;18.80;97.20;;;;;;1727065;28;20206;-66
2023/06/04 06:10:19;;;;;;;3.75;2.95;;;18.80;97.20;;;;;;1726872;28;20227;-66
2023/06/04 06:11:11;;;;;;;6.07;3.03;;;18.80;97.20;;;;;;1727065;28;20228;-66
2023/06/04 06:12:02;;;;;;;4.90;2.60;;;18.80;97.20;;;;;;1727080;28;20210;-66
2023/06/04 06:12:53;;;;;;;4.50;3.50;;;18.90;97.20;;;;;;1727007;28;20196;-66
2023/06/04 06:13:44;;;;;;;3.53;3.22;;;18.90;97.20;;;;;;1727005;28;20204;-67
2023/06/04 06:14:36;;;;;;;3.20;2.70;;;18.90;97.20;;;;;;1727011;28;20212;-67
2023/06/04 06:15:28;;;;;;;2.95;2.50;;;18.90;97.20;;;;;;1726917;28;20506;-66
2023/06/04 06:16:20;;;;;;;3.00;2.70;;;19.00;97.20;;;;;;1726917;28;20196;-65
2023/06/04 06:17:10;;;;;;;3.50;3.05;;;19.00;97.20;;;;;;1726823;28;20601;-66
2023/06/04 06:18:03;;;;;;;3.80;2.70;;;19.00;97.20;;;;;;1728166;28;20223;-66
2023/06/04 06:18:54;;;;;;;3.75;2.67;;;19.10;97.20;;;;;;1728307;28;20219;-67
2023/06/04 06:19:46;;;;;;;4.70;2.87;;;19.10;97.20;;;;;;1728239;28;20256;-67
2023/06/04 06:20:37;;;;;;;3.80;3.25;;;19.10;97.20;;;;;;1728307;28;20224;-67
2023/06/04 06:21:28;;;;;;;4.17;3.70;;;19.20;97.20;;;;;;1728198;28;20196;-67
2023/06/04 06:22:19;;;;;;;4.30;3.03;;;19.20;97.20;;;;;;1728162;28;20200;-67
2023/06/04 06:23:11;;;;;;;4.60;3.80;;;19.20;97.20;;;;;;1728428;28;20195;-67
2023/06/04 06:24:01;;;;;;;3.90;2.95;;;19.20;97.20;;;;;;1728314;28;20204;-67
2023/06/04 06:24:53;;;;;;;4.30;2.53;;;19.20;97.20;;;;;;1728375;28;20228;-67
2023/06/04 06:25:45;;;;;;;4.57;2.30;;;19.20;97.20;;;;;;1728323;28;20215;-66
2023/06/04 06:26:37;;;;;;;4.22;3.10;;;19.20;97.20;;;;;;1728379;28;20207;-66
2023/06/04 06:27:28;;;;;;;5.82;3.10;;;19.20;97.20;;;;;;1727983;28;20208;-67
2023/06/04 06:28:19;;;;;;;3.60;2.80;;;19.20;97.20;;;;;;1728215;28;20655;-67
2023/06/04 06:29:10;;;;;;;4.03;2.90;;;19.20;97.20;;;;;;1728271;28;20208;-67
2023/06/04 06:30:02;;;;;;;3.87;2.90;;;19.20;97.20;;;;;;1728350;28;20202;-67
2023/06/04 06:30:53;;;;;;;3.55;2.83;;;19.20;97.20;;;;;;1728116;28;20243;-67
2023/06/04 06:31:44;;;;;;;3.30;3.00;;;19.30;97.20;;;;;;1728193;28;20295;-67
2023/06/04 06:32:35;;;;;;;3.80;2.70;;;19.30;97.20;;;;;;1728241;28;20208;-67
2023/06/04 06:33:28;;;;;;;3.43;3.13;;;19.30;97.20;;;;;;1728185;28;20296;-67
2023/06/04 06:34:19;;;;;;;4.50;3.30;;;19.30;97.20;;;;;;1728323;28;20205;-67
2023/06/04 06:35:10;;;;;;;2.97;2.60;;;19.40;97.20;;;;;;1728338;28;20193;-66
2023/06/04 06:36:01;;;;;;;4.97;2.95;;;19.40;97.20;;;;;;1728255;28;20204;-67
2023/06/04 06:36:53;;;;;;;5.13;2.93;;;19.40;97.20;;;;;;1728001;28;20196;-67
2023/06/04 06:37:44;;;;;;;2.92;2.60;;;19.40;97.20;;;;;;1728343;28;20819;-67
2023/06/04 06:38:35;;;;;;;11.07;3.60;;;19.40;97.20;;;;;;1728188;28;20219;-67
2023/06/04 06:39:26;;;;;;;4.30;2.88;;;19.40;97.20;;;;;;1728059;28;20216;-67
2023/06/04 06:40:18;;;;;;;2.87;2.53;;;19.40;97.20;;;;;;1728122;28;20208;-67
2023/06/04 06:41:09;;;;;;;6.78;3.38;;;19.50;97.20;;;;;;1728176;28;20216;-67
2023/06/04 06:42:00;;;;;;;6.10;3.03;;;19.50;97.20;;;;;;1728102;28;20292;-67
2023/06/04 06:42:51;;;;;;;3.33;3.03;;;19.50;97.20;;;;;;1728245;28;20204;-67
2023/06/04 06:43:43;;;;;;;4.10;3.67;;;19.50;97.20;;;;;;1728296;28;20200;-67
2023/06/04 06:44:33;;;;;;;3.78;3.10;;;19.60;97.20;;;;;;1728133;28;20207;-67
2023/06/04 06:45:25;;;;;;;3.17;2.97;;;19.60;97.20;;;;;;1728104;28;20211;-67
2023/06/04 06:46:16;;;;;;;4.95;3.15;;;19.60;97.20;;;;;;1728193;28;20211;-66
2023/06/04 06:47:08;;;;;;;5.90;3.10;;;19.70;97.20;;;;;;1727871;28;20200;-67
2023/06/04 06:47:58;;;;;;;3.40;3.10;;;19.70;97.20;;;;;;1728159;28;20204;-66
2023/06/04 06:48:51;;;;;;;3.33;3.03;;;19.70;97.20;;;;;;1728201;28;20196;-70
2023/06/04 06:49:42;;;;;;;3.53;2.90;;;19.70;97.20;;;;;;1728294;28;20247;-69
2023/06/04 06:50:35;;;;;;;2.97;2.63;;;19.70;97.20;;;;;;1728166;28;20212;-69
2023/06/04 06:51:26;;;;;;;4.30;3.15;;;19.80;97.20;;;;;;1728157;28;20204;-70
2023/06/04 06:52:19;;;;;;;3.57;3.00;;;19.80;97.20;;;;;;1728153;28;20228;-69
2023/06/04 06:53:10;;;;;;;5.22;3.10;;;19.80;97.20;;;;;;1728191;28;20757;-69
2023/06/04 06:54:01;;;;;;;4.80;2.70;;;19.90;97.20;;;;;;1728209;28;20212;-67
2023/06/04 06:54:52;;;;;;;4.30;3.22;;;19.90;97.20;;;;;;1728185;28;20208;-66
2023/06/04 06:55:44;;;;;;;3.20;3.00;;;19.90;97.20;;;;;;1728213;28;20196;-66
2023/06/04 06:56:35;;;;;;;3.70;3.40;;;20.00;97.20;;;;;;1728063;28;20459;-67
2023/06/04 06:57:26;;;;;;;4.07;3.50;;;20.00;97.20;;;;;;1727765;28;20312;-67
2023/06/04 06:58:17;;;;;;;3.72;2.92;;;20.00;97.20;;;;;;1728080;28;20540;-67
2023/06/04 06:59:09;;;;;;;3.80;2.70;;;20.10;97.20;;;;;;1728116;28;20199;-67
2023/06/04 07:00:00;;;;;;;3.97;3.38;;;20.10;97.20;;;;;;1727993;28;21022;-69
2023/06/04 07:00:54;;;;;;;7.00;3.30;;;20.10;97.20;;;;;;1728065;28;20695;-67
2023/06/04 07:01:45;;;;;;;2.95;2.65;;;20.10;97.20;;;;;;1728145;28;20593;-67
2023/06/04 07:02:36;;;;;;;3.97;2.97;;;20.20;97.20;;;;;;1728042;28;20212;-67
2023/06/04 07:03:27;;;;;;;4.18;3.00;;;20.20;97.20;;;;;;1728080;28;20601;-68
2023/06/04 07:04:21;;;;;;;3.40;3.00;;;20.20;97.20;;;;;;1728170;28;20196;-67
2023/06/04 07:05:13;;;;;;;5.93;3.22;;;20.30;97.20;;;;;;1728084;28;20197;-67
2023/06/04 07:06:05;;;;;;;3.90;3.30;;;20.30;97.20;;;;;;1728162;28;20286;-67
2023/06/04 07:06:56;;;;;;;7.50;3.47;;;20.30;97.20;;;;;;1727793;28;20204;-67
2023/06/04 07:07:48;;;;;;;3.33;3.03;;;20.30;97.20;;;;;;1721697;28;20197;-67
2023/06/04 07:08:39;;;;;;;3.70;3.38;;;20.30;97.20;;;;;;1721281;28;20266;-67
2023/06/04 07:09:31;;;;;;;3.25;3.03;;;20.40;97.20;;;;;;1719034;28;20677;-67
2023/06/04 07:10:21;;;;;;;5.40;2.90;;;20.40;97.20;;;;;;1714467;28;20205;-67
2023/06/04 07:11:13;;;;;;;3.70;2.90;;;20.40;97.20;;;;;;1714809;28;20530;-67
2023/06/04 07:12:04;;;;;;;3.40;3.10;;;20.50;97.20;;;;;;1714512;28;20217;-67
2023/06/04 07:12:56;;;;;;;6.68;3.00;;;20.50;97.20;;;;;;1714594;28;20237;-67
2023/06/04 07:13:47;;;;;;;5.18;3.50;;;20.60;97.20;;;;;;1714591;28;20210;-67
2023/06/04 07:14:39;;;;;;;4.23;3.40;;;20.60;97.20;;;;;;1714588;28;20285;-67
2023/06/04 07:15:29;;;;;;;5.15;3.20;;;20.70;97.20;;;;;;1714568;28;20583;-68
2023/06/04 07:16:21;;;;;;;3.30;3.00;;;20.70;97.20;;;;;;1714537;28;20567;-67
2023/06/04 07:17:12;;;;;;;3.55;3.10;;;20.70;97.20;;;;;;1714278;28;20288;-67
2023/06/04 07:18:03;;;;;;;3.47;2.93;;;20.70;97.20;;;;;;1719827;28;20208;-67
2023/06/04 07:18:54;;;;;;;3.70;3.08;;;20.80;97.20;;;;;;1721179;28;20240;-67
2023/06/04 07:19:47;;;;;;;5.40;3.20;;;20.80;97.20;;;;;;1721156;28;20212;-67
2023/06/04 07:20:38;;;;;;;3.17;2.88;;;20.80;97.20;;;;;;1721149;28;20261;-67
2023/06/04 07:21:29;;;;;;;3.53;3.23;;;20.80;97.20;;;;;;1721291;28;20197;-68
2023/06/04 07:22:20;;;;;;;5.00;3.13;;;20.80;97.20;;;;;;1721050;28;20220;-67
2023/06/04 07:23:12;;;;;;;5.77;3.40;;;20.80;97.20;;;;;;1721413;28;20212;-67
2023/06/04 07:24:03;;;;;;;3.22;3.00;;;20.80;97.20;;;;;;1721213;28;20212;-67
2023/06/04 07:24:55;;;;;;;4.03;3.20;;;20.90;97.20;;;;;;1721141;28;20228;-67
2023/06/04 07:25:46;;;;;;;3.65;2.80;;;20.90;97.20;;;;;;1721205;28;20479;-67
2023/06/04 07:26:38;;;;;;;3.10;2.80;;;20.90;97.20;;;;;;1721130;28;20236;-67
2023/06/04 07:27:28;;;;;;;3.40;3.10;;;21.00;97.20;;;;;;1720880;28;20201;-67
2023/06/04 07:28:20;;;;;;;3.70;2.90;;;21.00;97.20;;;;;;1721116;28;20197;-67
2023/06/04 07:29:11;;;;;;;2.90;2.70;;;21.00;97.20;;;;;;1720200;28;20197;-68
2023/06/04 07:30:03;;;;;;;5.03;3.20;;;21.00;97.20;;;;;;1714933;28;20196;-68
2023/06/04 07:30:54;;;;;;;5.22;3.30;;;21.00;97.20;;;;;;1714213;28;20512;-67
2023/06/04 07:31:45;;;;;;;4.17;3.10;;;21.00;97.20;;;;;;1720621;28;20683;-67
2023/06/04 07:32:36;;;;;;;3.88;3.35;;;21.10;97.20;;;;;;1721068;28;20209;-67
2023/06/04 07:33:28;;;;;;;4.83;3.43;;;21.10;97.20;;;;;;1720838;28;20204;-68
2023/06/04 07:34:18;;;;;;;3.85;3.25;;;21.10;97.20;;;;;;1721124;28;20209;-68
2023/06/04 07:35:12;;;;;;;4.10;3.70;;;21.20;97.20;;;;;;1721157;28;20193;-67
2023/06/04 07:36:02;;;;;;;4.60;3.80;;;21.20;97.20;;;;;;1721162;28;20205;-68
2023/06/04 07:36:54;;;;;;;6.60;3.97;;;21.20;97.20;;;;;;1720767;28;20215;-67
2023/06/04 07:37:47;;;;;;;3.88;3.03;;;21.30;97.20;;;;;;1721141;28;20524;-67
2023/06/04 07:38:39;;;;;;;3.58;3.05;;;21.30;97.20;;;;;;1721075;28;20654;-68
2023/06/04 07:39:29;;;;;;;6.18;3.50;;;21.40;97.20;;;;;;1721011;28;20212;-67
2023/06/04 07:40:21;;;;;;;3.20;2.90;;;21.40;97.20;;;;;;1721010;28;20260;-67
2023/06/04 07:41:12;;;;;;;3.50;3.20;;;21.50;97.20;;;;;;1722170;28;20209;-68
2023/06/04 07:42:07;;;;;;;4.50;3.33;;;21.50;97.20;;;;;;1720904;28;20201;-68
2023/06/04 07:42:57;;;;;;;4.05;3.22;;;21.50;97.20;;;;;;1721036;28;20229;-70
2023/06/04 07:43:49;;;;;;;4.00;3.53;;;21.50;97.20;;;;;;1714735;28;20202;-70
2023/06/04 07:44:40;;;;;;;3.45;3.15;;;21.50;97.20;;;;;;1716849;28;20225;-69
2023/06/04 07:45:31;;;;;;;3.70;3.23;;;21.50;97.20;;;;;;1721001;28;20204;-68
2023/06/04 07:46:22;;;;;;;4.63;3.38;;;21.60;97.20;;;;;;1720857;28;20205;-68
2023/06/04 07:47:14;;;;;;;5.40;3.60;;;21.60;97.20;;;;;;1719936;28;20204;-68
2023/06/04 07:48:05;;;;;;;3.47;3.17;;;21.60;97.20;;;;;;1719599;28;20198;-67
2023/06/04 07:48:57;;;;;;;5.45;3.35;;;21.70;97.20;;;;;;1720856;28;20288;-68
2023/06/04 07:49:47;;;;;;;4.10;3.70;;;21.70;97.20;;;;;;1721014;28;20239;-67
2023/06/04 07:50:40;;;;;;;7.00;3.73;;;21.70;97.20;;;;;;1720908;28;20214;-67
2023/06/04 07:51:31;;;;;;;4.05;3.10;;;21.80;97.20;;;;;;1720919;28;20197;-68
2023/06/04 07:52:23;;;;;;;3.60;3.00;;;21.80;97.20;;;;;;1718165;28;20229;-71
2023/06/04 07:53:14;;;;;;;4.30;3.40;;;21.90;97.20;;;;;;1720744;28;20193;-68
2023/06/04 07:54:05;;;;;;;4.93;3.30;;;22.00;97.20;;;;;;1721060;28;20215;-67
2023/06/04 07:54:56;;;;;;;4.28;3.30;;;22.00;97.20;;;;;;1720948;28;20197;-67
2023/06/04 07:55:48;;;;;;;5.20;3.10;;;22.00;97.20;;;;;;1720990;28;20193;-68
2023/06/04 07:56:39;;;;;;;9.68;3.20;;;22.10;97.20;;;;;;1720913;28;20921;-67
2023/06/04 07:57:31;;;;;;;4.00;3.60;;;22.20;97.20;;;;;;1720606;28;20185;-67
2023/06/04 07:58:22;;;;;;;4.32;3.25;;;22.20;97.20;;;;;;1718255;28;20197;-68
2023/06/04 07:59:14;;;;;;;4.73;3.20;;;22.30;97.20;;;;;;1720141;28;20236;-67
2023/06/04 08:00:07;;;;;;;5.40;3.05;;;22.30;97.20;;;;;;1720321;28;20729;-67
2023/06/04 08:00:59;;;;;;;5.70;3.38;;;22.30;97.20;;;;;;1718715;28;20254;-68
2023/06/04 08:01:50;;;;;;;4.32;3.35;;;22.40;97.20;;;;;;1718069;28;20205;-67
2023/06/04 08:02:42;;;;;;;4.55;3.65;;;22.40;97.20;;;;;;1721058;28;20208;-68
2023/06/04 08:03:34;;;;;;;3.95;3.20;;;22.50;97.20;;;;;;1720825;28;20208;-71
2023/06/04 08:04:25;;;;;;;4.18;3.55;;;22.50;97.20;;;;;;1720836;28;20247;-66
2023/06/04 08:05:16;;;;;;;3.97;3.35;;;22.50;97.20;;;;;;1720644;28;20197;-67
2023/06/04 08:06:10;;;;;;;4.67;3.80;;;22.60;97.20;;;;;;1720846;28;20217;-68
2023/06/04 08:07:01;;;;;;;3.78;3.47;;;22.60;97.20;;;;;;1720476;28;20449;-67
2023/06/04 08:07:53;;;;;;;4.50;3.07;;;22.60;97.20;;;;;;1720902;28;20327;-68
2023/06/04 08:08:45;;;;;;;5.85;3.15;;;22.60;97.20;;;;;;1720784;28;20574;-68
2023/06/04 08:09:36;;;;;;;3.80;3.40;;;22.70;97.20;;;;;;1720875;28;20681;-70
2023/06/04 08:10:27;;;;;;;4.25;3.50;;;22.70;97.20;;;;;;1720763;28;20580;-67
2023/06/04 08:11:22;;;;;;;4.40;3.33;;;22.70;97.20;;;;;;1720777;28;20616;-68
2023/06/04 08:12:15;;;;;;;4.18;3.25;;;22.70;97.20;;;;;;1720758;28;21091;-68
2023/06/04 08:13:08;;;;;;;3.50;3.13;;;22.80;97.20;;;;;;1720669;28;20276;-67
2023/06/04 08:13:59;;;;;;;6.72;3.05;;;22.80;97.20;;;;;;1720712;28;20691;-68
2023/06/04 08:14:51;;;;;;;5.83;3.07;;;22.90;97.20;;;;;;1720918;28;20660;-68
2023/06/04 08:15:41;;;;;;;3.75;3.35;;;22.90;97.20;;;;;;1719269;28;20201;-70
2023/06/04 08:16:33;;;;;;;4.43;3.50;;;23.00;97.20;;;;;;1720703;28;20243;-69
2023/06/04 08:17:24;;;;;;;3.88;3.15;;;23.00;97.20;;;;;;1720509;28;20201;-68
2023/06/04 08:18:16;;;;;;;5.33;4.07;;;23.10;97.20;;;;;;1720589;28;20189;-68
2023/06/04 08:19:07;;;;;;;3.90;3.13;;;23.10;97.20;;;;;;1720691;28;20611;-68
2023/06/04 08:19:59;;;;;;;6.22;2.90;;;23.20;97.20;;;;;;1720667;28;20304;-68
2023/06/04 08:20:50;;;;;;;4.40;3.00;;;23.20;97.20;;;;;;1720586;28;20241;-68
2023/06/04 08:21:44;;;;;;;3.85;3.30;;;23.20;97.20;;;;;;1719874;28;20251;-68
2023/06/04 08:22:35;;;;;;;4.00;3.10;;;23.20;97.20;;;;;;1720692;28;20205;-68
2023/06/04 08:23:27;;;;;;;3.97;3.20;;;23.30;97.20;;;;;;1720740;28;20200;-69
2023/06/04 08:24:17;;;;;;;4.18;3.35;;;23.30;97.20;;;;;;1720685;28;20606;-68
2023/06/04 08:25:10;;;;;;;4.80;4.03;;;23.30;97.20;;;;;;1718096;28;20220;-68
2023/06/04 08:26:01;;;;;;;4.95;3.72;;;23.30;97.20;;;;;;1720470;28;20684;-68
2023/06/04 08:26:53;;;;;;;3.83;3.30;;;23.30;97.20;;;;;;1720558;28;20308;-68
2023/06/04 08:27:44;;;;;;;5.68;3.13;;;23.40;97.20;;;;;;1718229;28;20236;-68
2023/06/04 08:28:38;;;;;;;4.80;3.35;;;23.40;97.20;;;;;;1720569;28;20197;-68
2023/06/04 08:29:29;;;;;;;3.85;3.35;;;23.50;97.20;;;;;;1720636;28;20201;-68
2023/06/04 08:30:21;;;;;;;3.63;3.33;;;23.50;97.20;;;;;;1720270;28;20190;-68
2023/06/04 08:31:11;;;;;;;5.07;3.17;;;23.50;97.20;;;;;;1720674;28;20498;-68
2023/06/04 08:32:03;;;;;;;3.57;3.27;;;23.60;97.20;;;;;;1720605;28;20255;-68
2023/06/04 08:32:54;;;;;;;4.00;3.30;;;23.60;97.20;;;;;;1720588;28;20206;-69
2023/06/04 08:33:47;;;;;;;3.13;2.83;;;23.60;97.20;;;;;;1720714;28;20661;-68
2023/06/04 08:34:38;;;;;;;4.82;3.08;;;23.70;97.20;;;;;;1720548;28;20206;-68
2023/06/04 08:35:30;;;;;;;6.43;3.40;;;23.70;97.20;;;;;;1719998;28;20190;-68
2023/06/04 08:36:20;;;;;;;3.67;3.10;;;23.70;97.20;;;;;;1720572;28;20201;-68
2023/06/04 08:37:13;;;;;;;6.00;3.77;;;23.80;97.20;;;;;;1720433;28;20280;-69
2023/06/04 08:38:04;;;;;;;5.50;3.08;;;23.80;97.20;;;;;;1718163;28;20197;-68
2023/06/04 08:38:56;;;;;;;3.80;3.40;;;23.80;97.20;;;;;;1720599;28;20199;-68
2023/06/04 08:39:47;;;;;;;4.32;3.42;;;23.90;97.20;;;;;;1720643;28;20848;-69
2023/06/04 08:40:39;;;;;;;3.73;3.03;;;23.90;97.20;;;;;;1720229;28;20221;-67
2023/06/04 08:41:38;;;;;;;3.70;3.10;;;24.00;97.20;;;;;;1720560;28;20208;-68
2023/06/04 08:42:31;;;;;;;5.22;3.33;;;24.10;97.20;;;;;;1718707;28;20201;-70
2023/06/04 08:43:24;;;;;;;3.45;3.15;;;24.10;97.20;;;;;;1720357;28;20194;-67
2023/06/04 08:44:17;;;;;;;4.10;3.70;;;24.20;97.20;;;;;;1720504;28;20241;-68
2023/06/04 08:45:11;;;;;;;3.88;3.40;;;24.20;97.20;;;;;;1720636;28;20638;-68
2023/06/04 08:46:08;;;;;;;5.85;3.20;;;24.30;97.20;;;;;;1720507;28;20221;-68
2023/06/04 08:47:03;;;;;;;3.40;3.10;;;24.30;97.20;;;;;;1720271;28;20228;-68
2023/06/04 08:47:55;;;;;;;3.33;3.00;;;24.40;97.20;;;;;;1720481;28;20189;-67
2023/06/04 08:48:46;;;;;;;5.05;3.45;;;24.40;97.20;;;;;;1720647;28;20672;-67
2023/06/04 08:49:43;;;;;;;4.30;3.22;;;24.40;97.20;;;;;;1720595;28;20547;-68
2023/06/04 08:50:35;;;;;;;3.20;2.70;;;24.50;97.20;;;;;;1719714;28;21052;-67
2023/06/04 08:51:27;;;;;;;3.60;3.30;;;24.50;97.20;;;;;;1720361;28;20189;-67
2023/06/04 08:52:21;;;;;;;4.57;3.35;;;24.50;97.20;;;;;;1720411;28;20197;-68
2023/06/04 08:53:16;;;;;;;3.85;3.05;;;24.50;97.20;;;;;;1720510;28;20193;-69
2023/06/04 08:54:08;;;;;;;3.75;3.35;;;24.50;97.20;;;;;;1718314;28;20197;-68
2023/06/04 08:55:00;;;;;;;6.03;3.65;;;24.60;97.20;;;;;;1720349;28;20197;-68
2023/06/04 08:55:53;;;;;;;4.10;3.05;;;24.60;97.20;;;;;;1720377;28;20197;-68
2023/06/04 08:56:46;;;;;;;8.80;3.10;;;24.70;97.20;;;;;;1720533;28;20197;-68
2023/06/04 08:57:37;;;;;;;4.40;3.05;;;24.80;97.20;;;;;;1720293;28;20201;-68
2023/06/04 08:58:32;;;;;;;4.25;3.35;;;24.80;97.20;;;;;;1720394;28;20209;-68
2023/06/04 08:59:23;;;;;;;6.00;3.20;;;24.80;97.20;;;;;;1720386;28;20204;-68
2023/06/04 09:00:16;;;;;;;5.25;3.40;;;24.90;97.20;;;;;;1720375;28;20272;-68
2023/06/04 09:01:08;;;;;;;3.83;2.83;;;24.90;97.20;;;;;;1720465;28;20226;-68
2023/06/04 09:02:00;;;;;;;5.43;2.90;;;24.90;97.20;;;;;;1717846;28;20653;-68
2023/06/04 09:02:51;;;;;;;5.40;3.20;;;24.90;97.20;;;;;;1720661;28;20668;-68
2023/06/04 09:03:43;;;;;;;4.97;3.17;;;25.00;97.20;;;;;;1720258;28;20208;-68
2023/06/04 09:04:34;;;;;;;3.92;3.53;;;25.00;97.20;;;;;;1720508;28;20541;-68
2023/06/04 09:05:26;;;;;;;4.70;3.22;;;25.00;97.20;;;;;;1719852;28;20340;-68
2023/06/04 09:06:17;;;;;;;4.85;3.22;;;25.10;97.20;;;;;;1720410;28;20200;-68
2023/06/04 09:07:11;;;;;;;5.90;3.50;;;25.10;97.20;;;;;;1720263;28;20272;-68
2023/06/04 09:08:08;;;;;;;4.32;2.90;;;25.10;97.20;;;;;;1720566;28;20205;-69
2023/06/04 09:09:03;;;;;;;3.78;3.30;;;25.10;97.20;;;;;;1718930;28;20589;-68
2023/06/04 09:09:55;;;;;;;5.30;3.33;;;25.10;97.20;;;;;;1718195;28;20684;-68
2023/06/04 09:10:51;;;;;;;3.92;3.53;;;25.10;97.20;;;;;;1720368;28;20205;-68
2023/06/04 09:11:52;;;;;;;4.13;3.72;;;25.10;97.20;;;;;;1720613;28;20587;-68
2023/06/04 09:12:47;;;;;;;3.53;3.05;;;25.10;97.20;;;;;;1720592;28;20201;-68
2023/06/04 09:13:40;;;;;;;3.65;3.35;;;25.20;97.20;;;;;;1720566;28;20328;-68
2023/06/04 09:14:31;;;;;;;3.72;3.00;;;25.20;97.20;;;;;;1720300;28;20649;-68
2023/06/04 09:15:22;;;;;;;4.03;3.35;;;25.30;97.20;;;;;;1720504;28;20256;-68
2023/06/04 09:16:14;;;;;;;3.63;3.07;;;25.30;97.20;;;;;;1720444;28;20189;-68
2023/06/04 09:17:05;;;;;;;6.18;4.07;;;25.40;97.20;;;;;;1720207;28;20197;-67
2023/06/04 09:17:57;;;;;;;5.30;3.50;;;25.40;97.20;;;;;;1720467;28;20224;-68
2023/06/04 09:18:47;;;;;;;5.95;3.10;;;25.50;97.20;;;;;;1719838;28;20201;-68
2023/06/04 09:19:39;;;;;;;3.77;3.20;;;25.50;97.20;;;;;;1720384;28;20193;-68
2023/06/04 09:20:32;;;;;;;6.40;3.53;;;25.60;97.20;;;;;;1720248;28;20441;-68
2023/06/04 09:21:24;;;;;;;4.13;3.40;;;25.60;97.20;;;;;;1720562;28;20355;-70
2023/06/04 09:22:15;;;;;;;5.85;3.72;;;25.70;97.20;;;;;;1725891;28;20212;-68
2023/06/04 09:23:15;;;;;;;3.50;3.20;;;25.80;97.20;;;;;;1727109;28;20204;-68
2023/06/04 09:24:06;;;;;;;3.40;3.03;;;25.80;97.20;;;;;;1727150;28;20262;-68
2023/06/04 09:24:58;;;;;;;3.63;3.10;;;25.80;97.20;;;;;;1727059;28;20204;-67
2023/06/04 09:25:49;;;;;;;3.03;2.80;;;25.90;97.20;;;;;;1727006;28;20447;-68
2023/06/04 09:26:40;;;;;;;4.70;3.10;;;25.90;97.20;;;;;;1727223;28;20220;-67
2023/06/04 09:27:38;;;;;;;3.85;3.10;;;25.90;97.20;;;;;;1726946;28;20661;-67
2023/06/04 09:28:32;;;;;;;3.92;3.28;;;26.00;97.20;;;;;;1727173;28;20204;-67
2023/06/04 09:29:23;;;;;;;4.47;3.65;;;26.00;97.20;;;;;;1727153;28;20212;-68
2023/06/04 09:30:15;;;;;;;3.67;3.37;;;26.10;97.20;;;;;;1727040;28;20207;-68